sensor_id;sensor_type;location;lat;lon;timestamp;pressure;altitude;pressure_sealevel;temperature;humidity
7836;BME280;3963;42.658;23.298;2023-06-26T00:00:48;39759.84;;;-144.44;100.00
7836;BME280;3963;42.658;23.298;2023-06-26T00:03:15;39576.38;;;-144.44;100.00
7836;BME280;3963;42.658;23.298;2023-06-26T00:05:42;37842.63;;;-144.44;100.00
7836;BME280;3963;42.658;23.298;2023-06-26T00:08:09;39359.34;;;-144.44;100.00
7836;BME280;3963;42.658;23.298;2023-06-26T00:10:36;39223.22;;;-144.44;100.00
7836;BME280;3963;42.658;23.298;2023-06-26T00:13:04;39801.28;;;-144.44;100.00
7836;BME280;3963;42.658;23.298;2023-06-26T00:15:31;38187.72;;;-144.44;100.00
7836;BME280;3963;42.658;23.298;2023-06-26T00:17:58;37576.41;;;-144.44;100.00
7836;BME280;3963;42.658;23.298;2023-06-26T00:20:25;35498.81;;;-144.44;100.00
7836;BME280;3963;42.658;23.298;2023-06-26T00:22:52;39260.72;;;-144.44;100.00
7836;BME280;3963;42.658;23.298;2023-06-26T00:25:21;38992.44;;;-144.44;100.00
7836;BME280;3963;42.658;23.298;2023-06-26T00:27:47;37809.09;;;-144.44;100.00
7836;BME280;3963;42.658;23.298;2023-06-26T00:30:15;36330.50;;;-144.44;100.00
7836;BME280;3963;42.658;23.298;2023-06-26T00:32:42;37720.34;;;-144.44;100.00
7836;BME280;3963;42.658;23.298;2023-06-26T00:35:10;37191.94;;;-144.44;100.00
7836;BME280;3963;42.658;23.298;2023-06-26T00:37:38;37775.56;;;-144.44;100.00
7836;BME280;3963;42.658;23.298;2023-06-26T00:40:05;35565.81;;;-144.44;100.00
7836;BME280;3963;42.658;23.298;2023-06-26T00:42:32;36992.81;;;-144.44;100.00
7836;BME280;3963;42.658;23.298;2023-06-26T00:44:59;33914.88;;;-144.44;100.00
7836;BME280;3963;42.658;23.298;2023-06-26T00:47:29;35689.97;;;-144.44;100.00
7836;BME280;3963;42.658;23.298;2023-06-26T00:49:56;36417.22;;;-144.44;100.00
7836;BME280;3963;42.658;23.298;2023-06-26T00:52:23;36636.00;;;-144.44;100.00
7836;BME280;3963;42.658;23.298;2023-06-26T00:54:50;37749.94;;;-144.44;100.00
7836;BME280;3963;42.658;23.298;2023-06-26T00:57:18;37189.97;;;-144.44;100.00
7836;BME280;3963;42.658;23.298;2023-06-26T00:59:45;38195.59;;;-144.44;100.00
7836;BME280;3963;42.658;23.298;2023-06-26T01:02:12;35896.91;;;-144.44;100.00
7836;BME280;3963;42.658;23.298;2023-06-26T01:04:46;35299.81;;;-144.44;100.00
7836;BME280;3963;42.658;23.298;2023-06-26T01:07:14;34757.97;;;-144.44;100.00
7836;BME280;3963;42.658;23.298;2023-06-26T01:09:44;35380.59;;;-144.44;100.00
7836;BME280;3963;42.658;23.298;2023-06-26T01:12:12;35307.69;;;-144.44;100.00
7836;BME280;3963;42.658;23.298;2023-06-26T01:14:39;35810.19;;;-144.44;100.00
7836;BME280;3963;42.658;23.298;2023-06-26T01:17:07;36464.53;;;-144.44;100.00
7836;BME280;3963;42.658;23.298;2023-06-26T01:19:37;35747.13;;;-144.44;100.00
7836;BME280;3963;42.658;23.298;2023-06-26T01:22:14;34312.78;;;-144.44;100.00
7836;BME280;3963;42.658;23.298;2023-06-26T01:24:47;36858.78;;;-144.44;100.00
7836;BME280;3963;42.658;23.298;2023-06-26T01:27:21;36580.81;;;-144.44;100.00
7836;BME280;3963;42.658;23.298;2023-06-26T01:29:49;36705.00;;;-144.44;100.00
7836;BME280;3963;42.658;23.298;2023-06-26T01:32:18;36032.88;;;-144.44;100.00
7836;BME280;3963;42.658;23.298;2023-06-26T01:34:45;35952.06;;;-144.44;100.00
7836;BME280;3963;42.658;23.298;2023-06-26T01:37:12;32564.00;;;-144.44;100.00
7836;BME280;3963;42.658;23.298;2023-06-26T01:39:39;33676.56;;;-144.44;100.00
7836;BME280;3963;42.658;23.298;2023-06-26T01:42:06;35356.94;;;-144.44;100.00
7836;BME280;3963;42.658;23.298;2023-06-26T01:44:37;33438.28;;;-144.44;100.00
7836;BME280;3963;42.658;23.298;2023-06-26T01:47:09;34478.25;;;-144.44;100.00
7836;BME280;3963;42.658;23.298;2023-06-26T01:49:46;34263.53;;;-144.44;100.00
7836;BME280;3963;42.658;23.298;2023-06-26T01:52:19;34040.94;;;-144.44;100.00
7836;BME280;3963;42.658;23.298;2023-06-26T01:54:54;33812.47;;;-144.44;100.00
7836;BME280;3963;42.658;23.298;2023-06-26T01:57:22;36892.28;;;-144.44;100.00
7836;BME280;3963;42.658;23.298;2023-06-26T01:59:55;33820.34;;;-144.44;100.00
7836;BME280;3963;42.658;23.298;2023-06-26T02:02:25;35571.72;;;-144.44;100.00
7836;BME280;3963;42.658;23.298;2023-06-26T02:04:52;36086.09;;;-144.44;100.00
7836;BME280;3963;42.658;23.298;2023-06-26T02:07:19;34931.34;;;-144.44;100.00
7836;BME280;3963;42.658;23.298;2023-06-26T02:09:46;36243.78;;;-144.44;100.00
7836;BME280;3963;42.658;23.298;2023-06-26T02:12:13;36949.44;;;-144.44;100.00
7836;BME280;3963;42.658;23.298;2023-06-26T02:14:40;37801.19;;;-144.44;100.00
7836;BME280;3963;42.658;23.298;2023-06-26T02:17:08;37170.25;;;-144.44;100.00
7836;BME280;3963;42.658;23.298;2023-06-26T02:19:35;39189.69;;;-144.44;100.00
7836;BME280;3963;42.658;23.298;2023-06-26T02:22:03;37866.28;;;-144.44;100.00
7836;BME280;3963;42.658;23.298;2023-06-26T02:24:30;38637.38;;;-144.44;100.00
7836;BME280;3963;42.658;23.298;2023-06-26T02:26:58;36931.72;;;-144.44;100.00
7836;BME280;3963;42.658;23.298;2023-06-26T02:29:24;36273.34;;;-144.44;100.00
7836;BME280;3963;42.658;23.298;2023-06-26T02:31:51;36373.84;;;-144.44;100.00
7836;BME280;3963;42.658;23.298;2023-06-26T02:34:19;36882.44;;;-144.44;100.00
7836;BME280;3963;42.658;23.298;2023-06-26T02:36:46;36655.72;;;-144.44;100.00
7836;BME280;3963;42.658;23.298;2023-06-26T02:39:13;35788.50;;;-144.44;100.00
7836;BME280;3963;42.658;23.298;2023-06-26T02:41:40;36906.09;;;-144.44;100.00
7836;BME280;3963;42.658;23.298;2023-06-26T02:44:09;37905.72;;;-144.44;100.00
7836;BME280;3963;42.658;23.298;2023-06-26T02:46:37;36038.78;;;-144.44;100.00
7836;BME280;3963;42.658;23.298;2023-06-26T02:49:04;37318.13;;;-144.44;100.00
7836;BME280;3963;42.658;23.298;2023-06-26T02:51:33;36208.28;;;-144.44;100.00
7836;BME280;3963;42.658;23.298;2023-06-26T02:54:00;38379.00;;;-144.44;100.00
7836;BME280;3963;42.658;23.298;2023-06-26T02:56:27;36488.19;;;-144.44;100.00
7836;BME280;3963;42.658;23.298;2023-06-26T02:58:54;38676.84;;;-144.44;100.00
7836;BME280;3963;42.658;23.298;2023-06-26T03:01:21;36896.22;;;-144.44;100.00
7836;BME280;3963;42.658;23.298;2023-06-26T03:03:48;37919.50;;;-144.44;100.00
7836;BME280;3963;42.658;23.298;2023-06-26T03:06:15;37582.31;;;-144.44;100.00
7836;BME280;3963;42.658;23.298;2023-06-26T03:08:43;38538.78;;;-144.44;100.00
7836;BME280;3963;42.658;23.298;2023-06-26T03:11:10;37943.19;;;-144.44;100.00
7836;BME280;3963;42.658;23.298;2023-06-26T03:13:37;35995.44;;;-144.44;100.00
7836;BME280;3963;42.658;23.298;2023-06-26T03:16:05;36768.09;;;-144.44;100.00
7836;BME280;3963;42.658;23.298;2023-06-26T03:18:31;36190.56;;;-144.44;100.00
7836;BME280;3963;42.658;23.298;2023-06-26T03:20:58;36194.50;;;-144.44;100.00
7836;BME280;3963;42.658;23.298;2023-06-26T03:23:26;38256.75;;;-144.44;100.00
7836;BME280;3963;42.658;23.298;2023-06-26T03:25:54;35443.66;;;-144.44;100.00
7836;BME280;3963;42.658;23.298;2023-06-26T03:28:21;36241.78;;;-144.44;100.00
7836;BME280;3963;42.658;23.298;2023-06-26T03:30:48;38308.00;;;-144.44;100.00
7836;BME280;3963;42.658;23.298;2023-06-26T03:33:15;36714.88;;;-144.44;100.00
7836;BME280;3963;42.658;23.298;2023-06-26T03:35:42;37063.78;;;-144.44;100.00
7836;BME280;3963;42.658;23.298;2023-06-26T03:38:09;35774.72;;;-144.44;100.00
7836;BME280;3963;42.658;23.298;2023-06-26T03:40:36;36312.75;;;-144.44;100.00
7836;BME280;3963;42.658;23.298;2023-06-26T03:43:05;38820.81;;;-144.44;100.00
7836;BME280;3963;42.658;23.298;2023-06-26T03:45:31;37276.72;;;-144.44;100.00
7836;BME280;3963;42.658;23.298;2023-06-26T03:47:58;37172.22;;;-144.44;100.00
7836;BME280;3963;42.658;23.298;2023-06-26T03:50:25;37868.25;;;-144.44;100.00
7836;BME280;3963;42.658;23.298;2023-06-26T03:52:52;36992.81;;;-144.44;100.00
7836;BME280;3963;42.658;23.298;2023-06-26T03:55:20;35920.53;;;-144.44;100.00
7836;BME280;3963;42.658;23.298;2023-06-26T03:57:48;39446.16;;;-144.44;100.00
7836;BME280;3963;42.658;23.298;2023-06-26T04:00:17;39359.34;;;-144.44;100.00
7836;BME280;3963;42.658;23.298;2023-06-26T04:02:44;38027.97;;;-144.44;100.00
7836;BME280;3963;42.658;23.298;2023-06-26T04:05:11;37442.34;;;-144.44;100.00
7836;BME280;3963;42.658;23.298;2023-06-26T04:07:38;38797.16;;;-144.44;100.00
7836;BME280;3963;42.658;23.298;2023-06-26T04:10:06;38590.06;;;-144.44;100.00
7836;BME280;3963;42.658;23.298;2023-06-26T04:12:33;38645.28;;;-144.44;100.00
7836;BME280;3963;42.658;23.298;2023-06-26T04:15:00;39515.22;;;-144.44;100.00
7836;BME280;3963;42.658;23.298;2023-06-26T04:17:29;39669.09;;;-144.44;100.00
7836;BME280;3963;42.658;23.298;2023-06-26T04:19:56;38692.63;;;-144.44;100.00
7836;BME280;3963;42.658;23.298;2023-06-26T04:22:23;40491.94;;;-144.44;100.00
7836;BME280;3963;42.658;23.298;2023-06-26T04:24:50;40028.22;;;-144.44;100.00
7836;BME280;3963;42.658;23.298;2023-06-26T04:27:17;41012.97;;;-144.44;100.00
7836;BME280;3963;42.658;23.298;2023-06-26T04:29:44;40961.66;;;-144.44;100.00
7836;BME280;3963;42.658;23.298;2023-06-26T04:32:11;40837.31;;;-144.44;100.00
7836;BME280;3963;42.658;23.298;2023-06-26T04:34:40;42090.84;;;-144.44;100.00
7836;BME280;3963;42.658;23.298;2023-06-26T04:37:09;42185.59;;;-144.44;100.00
7836;BME280;3963;42.658;23.298;2023-06-26T04:39:36;42045.41;;;-144.44;100.00
7836;BME280;3963;42.658;23.298;2023-06-26T04:42:04;41889.44;;;-144.44;100.00
7836;BME280;3963;42.658;23.298;2023-06-26T04:44:31;41842.06;;;-144.44;100.00
7836;BME280;3963;42.658;23.298;2023-06-26T04:46:58;41865.75;;;-144.44;100.00
7836;BME280;3963;42.658;23.298;2023-06-26T04:49:25;41895.38;;;-144.44;100.00
7836;BME280;3963;42.658;23.298;2023-06-26T04:51:54;42236.94;;;-144.44;100.00
7836;BME280;3963;42.658;23.298;2023-06-26T04:54:21;43058.44;;;-144.44;100.00
7836;BME280;3963;42.658;23.298;2023-06-26T04:56:47;42742.44;;;-144.44;100.00
7836;BME280;3963;42.658;23.298;2023-06-26T04:59:14;42979.44;;;-144.44;100.00
7836;BME280;3963;42.658;23.298;2023-06-26T05:01:41;43074.22;;;-144.44;100.00
7836;BME280;3963;42.658;23.298;2023-06-26T05:04:09;43141.38;;;-144.44;100.00
7836;BME280;3963;42.658;23.298;2023-06-26T05:06:36;43101.88;;;-144.44;100.00
7836;BME280;3963;42.658;23.298;2023-06-26T05:09:04;43157.19;;;-144.44;100.00
7836;BME280;3963;42.658;23.298;2023-06-26T05:11:31;43236.19;;;-144.44;100.00
7836;BME280;3963;42.658;23.298;2023-06-26T05:13:58;43097.94;;;-144.44;100.00
7836;BME280;3963;42.658;23.298;2023-06-26T05:16:25;42882.66;;;-144.44;100.00
7836;BME280;3963;42.658;23.298;2023-06-26T05:18:51;43163.09;;;-144.44;100.00
7836;BME280;3963;42.658;23.298;2023-06-26T05:21:19;43032.75;;;-144.44;100.00
7836;BME280;3963;42.658;23.298;2023-06-26T05:23:46;43374.44;;;-144.44;100.00
7836;BME280;3963;42.658;23.298;2023-06-26T05:26:15;43329.00;;;-144.44;100.00
7836;BME280;3963;42.658;23.298;2023-06-26T05:28:43;43238.16;;;-144.44;100.00
7836;BME280;3963;42.658;23.298;2023-06-26T05:31:14;43400.13;;;-144.44;100.00
7836;BME280;3963;42.658;23.298;2023-06-26T05:33:43;43072.25;;;-144.44;100.00
7836;BME280;3963;42.658;23.298;2023-06-26T05:36:12;43259.88;;;-144.44;100.00
7836;BME280;3963;42.658;23.298;2023-06-26T05:38:39;43273.72;;;-144.44;100.00
7836;BME280;3963;42.658;23.298;2023-06-26T05:41:07;42886.63;;;-144.44;100.00
7836;BME280;3963;42.658;23.298;2023-06-26T05:43:36;43204.59;;;-144.44;100.00
7836;BME280;3963;42.658;23.298;2023-06-26T05:46:03;42379.09;;;-144.44;100.00
7836;BME280;3963;42.658;23.298;2023-06-26T05:48:30;42833.28;;;-144.44;100.00
7836;BME280;3963;42.658;23.298;2023-06-26T05:50:57;42485.75;;;-144.44;100.00
7836;BME280;3963;42.658;23.298;2023-06-26T05:53:24;43145.34;;;-144.44;100.00
7836;BME280;3963;42.658;23.298;2023-06-26T05:55:52;43226.31;;;-144.44;100.00
7836;BME280;3963;42.658;23.298;2023-06-26T05:58:20;43457.41;;;-144.44;100.00
7836;BME280;3963;42.658;23.298;2023-06-26T06:00:49;43425.78;;;-144.44;100.00
7836;BME280;3963;42.658;23.298;2023-06-26T06:03:16;43459.38;;;-144.44;100.00
7836;BME280;3963;42.658;23.298;2023-06-26T06:05:43;43662.81;;;-144.44;100.00
7836;BME280;3963;42.658;23.298;2023-06-26T06:08:10;43502.84;;;-144.44;100.00
7836;BME280;3963;42.658;23.298;2023-06-26T06:10:37;43852.47;;;-144.44;100.00
7836;BME280;3963;42.658;23.298;2023-06-26T06:13:03;43909.75;;;-144.44;100.00
7836;BME280;3963;42.658;23.298;2023-06-26T06:15:30;43814.94;;;-144.44;100.00
7836;BME280;3963;42.658;23.298;2023-06-26T06:17:58;44087.56;;;-144.44;100.00
7836;BME280;3963;42.658;23.298;2023-06-26T06:20:25;44138.91;;;-144.44;100.00
7836;BME280;3963;42.658;23.298;2023-06-26T06:22:52;44251.53;;;-144.44;100.00
7836;BME280;3963;42.658;23.298;2023-06-26T06:25:18;44314.75;;;-144.44;100.00
7836;BME280;3963;42.658;23.298;2023-06-26T06:27:46;44336.47;;;-144.44;100.00
7836;BME280;3963;42.658;23.298;2023-06-26T06:30:13;44334.50;;;-144.44;100.00
7836;BME280;3963;42.658;23.298;2023-06-26T06:32:40;44265.34;;;-144.44;100.00
7836;BME280;3963;42.658;23.298;2023-06-26T06:35:08;44196.22;;;-144.44;100.00
7836;BME280;3963;42.658;23.298;2023-06-26T06:37:36;44273.25;;;-144.44;100.00
7836;BME280;3963;42.658;23.298;2023-06-26T06:40:05;44215.97;;;-144.44;100.00
7836;BME280;3963;42.658;23.298;2023-06-26T06:42:33;44178.44;;;-144.44;100.00
7836;BME280;3963;42.658;23.298;2023-06-26T06:45:02;44334.50;;;-144.44;100.00
7836;BME280;3963;42.658;23.298;2023-06-26T06:47:29;44287.09;;;-144.44;100.00
7836;BME280;3963;42.658;23.298;2023-06-26T06:49:56;44569.63;;;-144.44;99.45
7836;BME280;3963;42.658;23.298;2023-06-26T06:52:25;44636.81;;;-144.44;95.95
7836;BME280;3963;42.658;23.298;2023-06-26T06:54:52;44603.22;;;-144.44;88.83
7836;BME280;3963;42.658;23.298;2023-06-26T06:57:19;44751.41;;;-144.44;86.52
7836;BME280;3963;42.658;23.298;2023-06-26T06:59:46;44779.06;;;-144.44;80.44
7836;BME280;3963;42.658;23.298;2023-06-26T07:02:14;44968.78;;;-144.44;81.97
7836;BME280;3963;42.658;23.298;2023-06-26T07:04:41;45176.28;;;-144.44;88.82
7836;BME280;3963;42.658;23.298;2023-06-26T07:07:08;44990.50;;;-144.44;80.08
7836;BME280;3963;42.658;23.298;2023-06-26T07:09:36;45087.34;;;-144.44;82.00
7836;BME280;3963;42.658;23.298;2023-06-26T07:12:04;45168.38;;;-144.44;82.93
7836;BME280;3963;42.658;23.298;2023-06-26T07:14:31;45524.09;;;-144.44;90.75
7836;BME280;3963;42.658;23.298;2023-06-26T07:16:57;45103.16;;;-144.44;78.21
7836;BME280;3963;42.658;23.298;2023-06-26T07:19:24;45067.59;;;-144.44;75.82
7836;BME280;3963;42.658;23.298;2023-06-26T07:21:51;45377.84;;;-144.44;80.61
7836;BME280;3963;42.658;23.298;2023-06-26T07:24:17;45134.78;;;-144.44;70.45
7836;BME280;3963;42.658;23.298;2023-06-26T07:26:45;45217.78;;;-144.44;72.53
7836;BME280;3963;42.658;23.298;2023-06-26T07:29:12;45194.06;;;-144.44;70.41
7836;BME280;3963;42.658;23.298;2023-06-26T07:31:39;45352.16;;;-144.44;74.47
7836;BME280;3963;42.658;23.298;2023-06-26T07:34:05;45259.28;;;-144.44;71.61
7836;BME280;3963;42.658;23.298;2023-06-26T07:36:32;45362.03;;;-144.44;75.31
7836;BME280;3963;42.658;23.298;2023-06-26T07:38:59;45265.22;;;-144.44;68.13
7836;BME280;3963;42.658;23.298;2023-06-26T07:41:25;45255.31;;;-144.44;64.22
7836;BME280;3963;42.658;23.298;2023-06-26T07:43:56;45306.72;;;-144.44;65.10
7836;BME280;3963;42.658;23.298;2023-06-26T07:46:23;45316.59;;;-144.44;63.24
7836;BME280;3963;42.658;23.298;2023-06-26T07:48:50;45413.44;;;-144.44;71.04
7836;BME280;3963;42.658;23.298;2023-06-26T07:51:17;45500.38;;;-144.44;72.70
7836;BME280;3963;42.658;23.298;2023-06-26T07:53:43;45403.53;;;-144.44;66.39
7836;BME280;3963;42.658;23.298;2023-06-26T07:56:10;45358.09;;;-144.44;64.87
7836;BME280;3963;42.658;23.298;2023-06-26T07:58:37;45411.44;;;-144.44;66.79
7836;BME280;3963;42.658;23.298;2023-06-26T08:01:05;45369.94;;;-144.44;63.05
7836;BME280;3963;42.658;23.298;2023-06-26T08:03:32;45401.56;;;-144.44;63.98
7836;BME280;3963;42.658;23.298;2023-06-26T08:05:58;45452.97;;;-144.44;65.88
7836;BME280;3963;42.658;23.298;2023-06-26T08:08:25;45431.22;;;-144.44;62.23
7836;BME280;3963;42.658;23.298;2023-06-26T08:10:52;45454.94;;;-144.44;69.08
7836;BME280;3963;42.658;23.298;2023-06-26T08:13:19;45595.25;;;-144.44;72.18
7836;BME280;3963;42.658;23.298;2023-06-26T08:15:45;45498.41;;;-144.44;63.20
7836;BME280;3963;42.658;23.298;2023-06-26T08:18:14;45472.72;;;-144.44;57.38
7836;BME280;3963;42.658;23.298;2023-06-26T08:20:40;45464.81;;;-144.44;61.48
7836;BME280;3963;42.658;23.298;2023-06-26T08:23:07;45419.34;;;-144.44;62.60
7836;BME280;3963;42.658;23.298;2023-06-26T08:25:34;45551.78;;;-144.44;67.35
7836;BME280;3963;42.658;23.298;2023-06-26T08:28:01;45478.66;;;-144.44;65.77
7836;BME280;3963;42.658;23.298;2023-06-26T08:30:28;45524.09;;;-144.44;67.97
7836;BME280;3963;42.658;23.298;2023-06-26T08:32:55;45512.25;;;-144.44;67.14
7836;BME280;3963;42.658;23.298;2023-06-26T08:35:23;45500.38;;;-144.44;67.58
7836;BME280;3963;42.658;23.298;2023-06-26T08:37:50;45504.34;;;-144.44;65.33
7836;BME280;3963;42.658;23.298;2023-06-26T08:40:21;45476.66;;;-144.44;62.79
7836;BME280;3963;42.658;23.298;2023-06-26T08:42:48;45450.97;;;-144.44;58.21
7836;BME280;3963;42.658;23.298;2023-06-26T08:45:18;45492.47;;;-144.44;59.76
7836;BME280;3963;42.658;23.298;2023-06-26T08:47:45;45512.25;;;-144.44;56.03
7836;BME280;3963;42.658;23.298;2023-06-26T08:50:16;45555.72;;;-144.44;58.02
7836;BME280;3963;42.658;23.298;2023-06-26T08:52:52;45532.00;;;-144.44;52.87
7836;BME280;3963;42.658;23.298;2023-06-26T08:55:20;45486.56;;;-144.44;57.97
7836;BME280;3963;42.658;23.298;2023-06-26T08:57:50;45508.28;;;-144.44;64.52
7836;BME280;3963;42.658;23.298;2023-06-26T09:00:17;45508.28;;;-144.44;54.63
7836;BME280;3963;42.658;23.298;2023-06-26T09:02:45;45563.63;;;-144.44;54.29
7836;BME280;3963;42.658;23.298;2023-06-26T09:05:12;45603.16;;;-144.44;59.18
7836;BME280;3963;42.658;23.298;2023-06-26T09:07:38;45696.06;;;-144.44;48.23
7836;BME280;3963;42.658;23.298;2023-06-26T09:10:09;45565.63;;;-144.44;51.27
7836;BME280;3963;42.658;23.298;2023-06-26T09:12:36;45547.81;;;-144.44;57.74
7836;BME280;3963;42.658;23.298;2023-06-26T09:15:05;45484.56;;;-144.44;54.78
7836;BME280;3963;42.658;23.298;2023-06-26T09:17:37;45534.00;;;-144.44;55.51
7836;BME280;3963;42.658;23.298;2023-06-26T09:20:05;45547.81;;;-144.44;54.48
7836;BME280;3963;42.658;23.298;2023-06-26T09:22:36;45547.81;;;-144.44;56.78
7836;BME280;3963;42.658;23.298;2023-06-26T09:25:05;45555.72;;;-144.44;54.33
7836;BME280;3963;42.658;23.298;2023-06-26T09:27:34;45530.03;;;-144.44;55.36
7836;BME280;3963;42.658;23.298;2023-06-26T09:30:01;45543.88;;;-144.44;58.05
7836;BME280;3963;42.658;23.298;2023-06-26T09:32:29;45559.69;;;-144.44;56.77
7836;BME280;3963;42.658;23.298;2023-06-26T09:34:56;45557.72;;;-144.44;53.08
7836;BME280;3963;42.658;23.298;2023-06-26T09:37:22;45615.03;;;-144.44;57.00
7836;BME280;3963;42.658;23.298;2023-06-26T09:39:50;45660.47;;;-144.44;50.45
7836;BME280;3963;42.658;23.298;2023-06-26T09:42:17;45632.81;;;-144.44;52.69
7836;BME280;3963;42.658;23.298;2023-06-26T09:44:47;45678.28;;;-144.44;49.45
7836;BME280;3963;42.658;23.298;2023-06-26T09:47:16;45575.50;;;-144.44;50.91
7836;BME280;3963;42.658;23.298;2023-06-26T09:49:43;45486.56;;;-144.44;55.72
7836;BME280;3963;42.658;23.298;2023-06-26T09:52:14;45569.56;;;-144.44;49.11
7836;BME280;3963;42.658;23.298;2023-06-26T09:54:41;45581.44;;;-144.44;51.10
7836;BME280;3963;42.658;23.298;2023-06-26T09:57:11;45555.72;;;-144.44;53.33
7836;BME280;3963;42.658;23.298;2023-06-26T09:59:39;45640.72;;;-144.44;60.42
7836;BME280;3963;42.658;23.298;2023-06-26T10:02:07;45682.22;;;-144.44;50.30
7836;BME280;3963;42.658;23.298;2023-06-26T10:04:35;45729.66;;;-144.44;45.03
7836;BME280;3963;42.658;23.298;2023-06-26T10:07:05;45753.38;;;-144.44;44.16
7836;BME280;3963;42.658;23.298;2023-06-26T10:09:33;45688.16;;;-144.44;47.58
7836;BME280;3963;42.658;23.298;2023-06-26T10:12:03;45771.16;;;-144.44;46.86
7836;BME280;3963;42.658;23.298;2023-06-26T10:14:34;45800.81;;;-144.44;48.39
7836;BME280;3963;42.658;23.298;2023-06-26T10:17:04;45820.59;;;-144.44;48.06
7836;BME280;3963;42.658;23.298;2023-06-26T10:19:35;45802.78;;;-144.44;41.51
7836;BME280;3963;42.658;23.298;2023-06-26T10:22:05;45753.38;;;-144.44;47.94
7836;BME280;3963;42.658;23.298;2023-06-26T10:24:33;45731.63;;;-144.44;45.57
7836;BME280;3963;42.658;23.298;2023-06-26T10:27:04;45626.88;;;-144.44;47.38
7836;BME280;3963;42.658;23.298;2023-06-26T10:29:35;45609.09;;;-144.44;47.22
7836;BME280;3963;42.658;23.298;2023-06-26T10:32:04;45609.09;;;-144.44;46.98
7836;BME280;3963;42.658;23.298;2023-06-26T10:34:34;45638.75;;;-144.44;48.61
7836;BME280;3963;42.658;23.298;2023-06-26T10:37:02;45662.47;;;-144.44;46.11
7836;BME280;3963;42.658;23.298;2023-06-26T10:39:45;45642.69;;;-144.44;47.56
7836;BME280;3963;42.658;23.298;2023-06-26T10:42:13;45579.44;;;-144.44;46.29
7836;BME280;3963;42.658;23.298;2023-06-26T10:44:41;45545.84;;;-144.44;45.75
7836;BME280;3963;42.658;23.298;2023-06-26T10:47:09;45514.22;;;-144.44;50.58
7836;BME280;3963;42.658;23.298;2023-06-26T10:49:38;45547.81;;;-144.44;47.84
7836;BME280;3963;42.658;23.298;2023-06-26T10:52:06;45545.84;;;-144.44;51.30
7836;BME280;3963;42.658;23.298;2023-06-26T10:54:33;45585.38;;;-144.44;45.27
7836;BME280;3963;42.658;23.298;2023-06-26T10:57:01;45535.97;;;-144.44;46.21
7836;BME280;3963;42.658;23.298;2023-06-26T10:59:31;45549.81;;;-144.44;53.06
7836;BME280;3963;42.658;23.298;2023-06-26T11:01:59;45561.66;;;-144.44;52.12
7836;BME280;3963;42.658;23.298;2023-06-26T11:04:39;45535.97;;;-144.44;50.40
7836;BME280;3963;42.658;23.298;2023-06-26T11:07:17;45595.25;;;-144.44;46.32
7836;BME280;3963;42.658;23.298;2023-06-26T11:09:58;45561.66;;;-144.44;49.08
7836;BME280;3963;42.658;23.298;2023-06-26T11:12:36;45551.78;;;-144.44;49.05
7836;BME280;3963;42.658;23.298;2023-06-26T11:15:03;45528.06;;;-144.44;48.92
7836;BME280;3963;42.658;23.298;2023-06-26T11:17:31;45537.94;;;-144.44;47.93
7836;BME280;3963;42.658;23.298;2023-06-26T11:19:59;45522.13;;;-144.44;47.89
7836;BME280;3963;42.658;23.298;2023-06-26T11:22:26;45539.91;;;-144.44;49.57
7836;BME280;3963;42.658;23.298;2023-06-26T11:24:54;45539.91;;;-144.44;47.76
7836;BME280;3963;42.658;23.298;2023-06-26T11:27:31;45559.69;;;-144.44;47.12
7836;BME280;3963;42.658;23.298;2023-06-26T11:29:58;45603.16;;;-144.44;46.66
7836;BME280;3963;42.658;23.298;2023-06-26T11:32:26;45561.66;;;-144.44;45.40
7836;BME280;3963;42.658;23.298;2023-06-26T11:34:53;45532.00;;;-144.44;46.96
7836;BME280;3963;42.658;23.298;2023-06-26T11:37:21;45545.84;;;-144.44;46.75
7836;BME280;3963;42.658;23.298;2023-06-26T11:39:49;45571.53;;;-144.44;49.57
7836;BME280;3963;42.658;23.298;2023-06-26T11:42:16;45555.72;;;-144.44;49.67
7836;BME280;3963;42.658;23.298;2023-06-26T11:44:43;45530.03;;;-144.44;53.99
7836;BME280;3963;42.658;23.298;2023-06-26T11:47:14;45504.34;;;-144.44;47.21
7836;BME280;3963;42.658;23.298;2023-06-26T11:49:45;45494.47;;;-144.44;50.53
7836;BME280;3963;42.658;23.298;2023-06-26T11:52:12;45520.16;;;-144.44;47.85
7836;BME280;3963;42.658;23.298;2023-06-26T11:54:41;45539.91;;;-144.44;48.44
7836;BME280;3963;42.658;23.298;2023-06-26T11:57:12;45569.56;;;-144.44;46.47
7836;BME280;3963;42.658;23.298;2023-06-26T11:59:40;45543.88;;;-144.44;49.38
7836;BME280;3963;42.658;23.298;2023-06-26T12:02:08;45577.47;;;-144.44;53.41
7836;BME280;3963;42.658;23.298;2023-06-26T12:04:41;45595.25;;;-144.44;51.23
7836;BME280;3963;42.658;23.298;2023-06-26T12:07:09;45618.97;;;-144.44;50.09
7836;BME280;3963;42.658;23.298;2023-06-26T12:09:42;45607.13;;;-144.44;49.86
7836;BME280;3963;42.658;23.298;2023-06-26T12:12:11;45634.78;;;-144.44;48.20
7836;BME280;3963;42.658;23.298;2023-06-26T12:14:39;45626.88;;;-144.44;45.65
7836;BME280;3963;42.658;23.298;2023-06-26T12:17:09;45658.50;;;-144.44;47.56
7836;BME280;3963;42.658;23.298;2023-06-26T12:19:37;45618.97;;;-144.44;45.93
7836;BME280;3963;42.658;23.298;2023-06-26T12:22:06;45628.84;;;-144.44;49.33
7836;BME280;3963;42.658;23.298;2023-06-26T12:24:35;45577.47;;;-144.44;44.82
7836;BME280;3963;42.658;23.298;2023-06-26T12:27:08;45595.25;;;-144.44;48.50
7836;BME280;3963;42.658;23.298;2023-06-26T12:29:35;45601.19;;;-144.44;46.80
7836;BME280;3963;42.658;23.298;2023-06-26T12:32:02;45569.56;;;-144.44;45.90
7836;BME280;3963;42.658;23.298;2023-06-26T12:34:32;45589.34;;;-144.44;45.05
7836;BME280;3963;42.658;23.298;2023-06-26T12:37:01;45551.78;;;-144.44;45.68
7836;BME280;3963;42.658;23.298;2023-06-26T12:39:29;45539.91;;;-144.44;46.24
7836;BME280;3963;42.658;23.298;2023-06-26T12:41:58;45541.91;;;-144.44;47.10
7836;BME280;3963;42.658;23.298;2023-06-26T12:44:28;45577.47;;;-144.44;48.07
7836;BME280;3963;42.658;23.298;2023-06-26T12:46:57;45551.78;;;-144.44;51.53
7836;BME280;3963;42.658;23.298;2023-06-26T12:49:32;45585.38;;;-144.44;49.09